Time;durP1;ratioP1;P1;durP2;ratioP2;P2;SDS_P1;SDS_P2;PMS_P1;PMS_P2;Temp;Humidity;BMP_temperature;BMP_pressure;BME280_temperature;BME280_humidity;BME280_pressure;Samples;Min_cycle;Max_cycle;Signal;HPM_P1;HPM_P2
2023/10/13 00:02:08;;;;;;;20.27;11.27;;;;;;;;;;6241820;22;20038;-81
2023/10/13 00:04:37;;;;;;;24.27;11.43;;;;;;;;;;6284795;22;20008;-81
2023/10/13 00:07:04;;;;;;;17.55;11.50;;;;;;;;;;6298067;22;20019;-81
2023/10/13 00:09:37;;;;;;;19.67;12.20;;;;;;;;;;6293298;22;20067;-81
2023/10/13 00:12:13;;;;;;;21.10;12.30;;;;;;;;;;6293453;22;20046;-81
2023/10/13 00:14:39;;;;;;;19.88;12.35;;;;;;;;;;6270993;22;20043;-81
2023/10/13 00:17:15;;;;;;;24.23;14.02;;;;;;;;;;6264762;22;20049;-81
2023/10/13 00:19:45;;;;;;;17.65;10.82;;;;;;;;;;6251344;22;20007;-81
2023/10/13 00:22:12;;;;;;;18.80;11.80;;;;;;;;;;6250526;22;20011;-81
2023/10/13 00:24:50;;;;;;;18.95;11.63;;;;;;;;;;6225428;22;20018;-81
2023/10/13 00:27:29;;;;;;;17.48;10.70;;;;;;;;;;6250660;22;20410;-81
2023/10/13 00:32:42;;;;;;;18.58;10.07;;;;;;;;;;6278675;22;20016;-81
2023/10/13 00:35:12;;;;;;;15.88;9.73;;;;;;;;;;6278237;22;20126;-81
2023/10/13 00:37:44;;;;;;;17.63;10.52;;;;;;;;;;6277990;22;20046;-81
2023/10/13 00:40:41;;;;;;;18.27;10.02;;;;;;;;;;6277378;22;20030;-81
2023/10/13 00:43:13;;;;;;;18.42;10.90;;;;;;;;;;6278178;22;20019;-81
2023/10/13 00:45:43;;;;;;;17.42;10.13;;;;;;;;;;6278702;22;20019;-81
2023/10/13 00:48:11;;;;;;;16.02;9.05;;;;;;;;;;6278411;22;20050;-81
2023/10/13 00:50:37;;;;;;;16.17;9.90;;;;;;;;;;6251727;22;20059;-81
2023/10/13 00:53:04;;;;;;;17.80;10.10;;;;;;;;;;6278829;22;20344;-81
2023/10/13 00:55:33;;;;;;;18.48;10.13;;;;;;;;;;6279290;22;20012;-81
2023/10/13 00:58:03;;;;;;;18.05;10.57;;;;;;;;;;6279749;22;20061;-81
2023/10/13 01:00:30;;;;;;;19.90;10.23;;;;;;;;;;6280105;22;20054;-81
2023/10/13 01:02:56;;;;;;;18.60;10.02;;;;;;;;;;6252151;22;20007;-81
2023/10/13 01:05:23;;;;;;;14.93;9.80;;;;;;;;;;6279929;22;20011;-81
2023/10/13 01:07:54;;;;;;;16.95;9.82;;;;;;;;;;6254402;22;20027;-81
2023/10/13 01:10:25;;;;;;;17.65;10.07;;;;;;;;;;6282261;22;20033;-81
2023/10/13 01:12:52;;;;;;;16.88;9.75;;;;;;;;;;6283022;22;20059;-81
2023/10/13 01:15:21;;;;;;;17.95;9.70;;;;;;;;;;6283355;22;20011;-81
2023/10/13 01:17:47;;;;;;;20.52;11.30;;;;;;;;;;6283684;22;20015;-81
2023/10/13 01:20:24;;;;;;;17.15;9.52;;;;;;;;;;6282645;22;20023;-81
2023/10/13 01:22:56;;;;;;;15.90;10.00;;;;;;;;;;6254767;22;20012;-81
2023/10/13 01:25:28;;;;;;;15.82;10.20;;;;;;;;;;6282547;22;20090;-81
2023/10/13 01:27:55;;;;;;;17.42;10.90;;;;;;;;;;6281318;22;20016;-81
2023/10/13 01:30:26;;;;;;;19.00;11.10;;;;;;;;;;6282621;22;20050;-81
2023/10/13 01:32:53;;;;;;;20.08;10.38;;;;;;;;;;6254891;22;20012;-81
2023/10/13 01:35:27;;;;;;;15.90;9.95;;;;;;;;;;6254414;22;20018;-81
2023/10/13 01:37:53;;;;;;;17.35;10.23;;;;;;;;;;6282646;22;20086;-81
2023/10/13 01:40:20;;;;;;;18.35;10.77;;;;;;;;;;6282100;22;20038;-81
2023/10/13 01:42:47;;;;;;;19.55;11.05;;;;;;;;;;6255594;22;20012;-81
2023/10/13 01:45:13;;;;;;;19.65;11.38;;;;;;;;;;6282190;22;20090;-81
2023/10/13 01:47:39;;;;;;;21.35;11.93;;;;;;;;;;6282624;22;20012;-81
2023/10/13 01:50:20;;;;;;;20.00;12.35;;;;;;;;;;6282084;22;20007;-81
2023/10/13 01:52:46;;;;;;;19.45;11.23;;;;;;;;;;6283003;22;20011;-81
2023/10/13 01:55:14;;;;;;;19.70;10.52;;;;;;;;;;6282086;22;20109;-81
2023/10/13 01:57:42;;;;;;;17.98;11.55;;;;;;;;;;6281933;22;20015;-81
2023/10/13 02:00:18;;;;;;;21.35;11.77;;;;;;;;;;6255692;22;20020;-81
2023/10/13 02:02:45;;;;;;;22.77;12.80;;;;;;;;;;6283095;22;20012;-81
2023/10/13 02:05:16;;;;;;;19.67;13.55;;;;;;;;;;6254820;22;20039;-81
2023/10/13 02:07:44;;;;;;;21.73;11.88;;;;;;;;;;6281907;22;20016;-81
2023/10/13 02:10:12;;;;;;;19.20;10.95;;;;;;;;;;6254841;22;20441;-81
2023/10/13 02:12:44;;;;;;;15.13;10.13;;;;;;;;;;6230846;22;20027;-81
2023/10/13 02:15:12;;;;;;;20.73;10.68;;;;;;;;;;6283056;22;20012;-81
2023/10/13 02:17:42;;;;;;;16.45;10.43;;;;;;;;;;6285674;22;20083;-83
2023/10/13 02:20:14;;;;;;;18.65;10.35;;;;;;;;;;6284908;22;20041;-82
2023/10/13 02:22:48;;;;;;;17.88;11.48;;;;;;;;;;6284164;22;20368;-82
2023/10/13 02:25:17;;;;;;;16.20;9.98;;;;;;;;;;6282709;22;20016;-82
2023/10/13 02:27:43;;;;;;;18.50;11.93;;;;;;;;;;6287110;22;20015;-82
2023/10/13 02:30:14;;;;;;;18.45;11.10;;;;;;;;;;6286358;22;20027;-82
2023/10/13 02:32:43;;;;;;;19.00;11.13;;;;;;;;;;6288964;22;20011;-82
2023/10/13 02:35:15;;;;;;;16.27;10.63;;;;;;;;;;6285886;22;20015;-82
2023/10/13 02:37:46;;;;;;;16.70;10.85;;;;;;;;;;6255256;22;20012;-82
2023/10/13 02:40:12;;;;;;;17.10;10.32;;;;;;;;;;6280417;22;20042;-82
2023/10/13 02:42:38;;;;;;;16.77;9.88;;;;;;;;;;6255331;22;20019;-82
2023/10/13 02:45:05;;;;;;;19.27;11.07;;;;;;;;;;6254222;22;20095;-82
2023/10/13 02:47:34;;;;;;;21.25;11.20;;;;;;;;;;6254711;22;20016;-82
2023/10/13 02:50:00;;;;;;;18.30;10.88;;;;;;;;;;6281407;22;20340;-82
2023/10/13 02:52:27;;;;;;;16.92;10.20;;;;;;;;;;6281567;22;20090;-82
2023/10/13 02:54:53;;;;;;;16.70;9.73;;;;;;;;;;6282853;22;20047;-82
2023/10/13 02:57:19;;;;;;;15.27;9.45;;;;;;;;;;6254707;22;20019;-82
2023/10/13 02:59:46;;;;;;;17.38;10.27;;;;;;;;;;6281329;22;20051;-82
2023/10/13 03:02:31;;;;;;;17.50;10.27;;;;;;;;;;6253877;22;20059;-82
2023/10/13 03:05:08;;;;;;;18.52;9.93;;;;;;;;;;6280927;22;20503;-82
2023/10/13 03:07:37;;;;;;;17.50;9.48;;;;;;;;;;6253592;22;20038;-82
2023/10/13 03:10:10;;;;;;;17.08;9.45;;;;;;;;;;6280866;22;20065;-82
2023/10/13 03:12:37;;;;;;;16.88;8.75;;;;;;;;;;6253973;22;20012;-82
2023/10/13 03:15:14;;;;;;;16.38;10.45;;;;;;;;;;6281393;22;20364;-82
2023/10/13 03:17:43;;;;;;;18.15;9.75;;;;;;;;;;6281806;22;20018;-82
2023/10/13 03:20:15;;;;;;;13.02;8.43;;;;;;;;;;6253936;22;20023;-82
2023/10/13 03:22:44;;;;;;;17.73;9.45;;;;;;;;;;6254141;22;20023;-82
2023/10/13 03:25:17;;;;;;;17.55;10.50;;;;;;;;;;6253465;22;20023;-82
2023/10/13 03:28:01;;;;;;;14.23;9.75;;;;;;;;;;6253405;22;20011;-82
2023/10/13 03:30:35;;;;;;;12.98;7.88;;;;;;;;;;6281746;22;20070;-83
2023/10/13 03:33:06;;;;;;;15.30;9.32;;;;;;;;;;6281177;22;20046;-83
2023/10/13 03:35:37;;;;;;;14.52;8.73;;;;;;;;;;6254685;22;20065;-83
2023/10/13 03:38:04;;;;;;;15.77;10.15;;;;;;;;;;6281487;22;20007;-83
2023/10/13 03:43:10;;;;;;;16.83;9.85;;;;;;;;;;6255724;22;20376;-83
2023/10/13 03:45:42;;;;;;;17.65;9.88;;;;;;;;;;6229633;22;20030;-83
2023/10/13 03:51:03;;;;;;;17.23;9.50;;;;;;;;;;6282237;22;20428;-83
2023/10/13 03:53:33;;;;;;;16.15;10.32;;;;;;;;;;6281561;22;20075;-83
2023/10/13 03:56:11;;;;;;;18.45;11.10;;;;;;;;;;6281165;22;20011;-83
2023/10/13 03:58:39;;;;;;;14.55;10.02;;;;;;;;;;6254048;22;20416;-83
2023/10/13 04:01:09;;;;;;;15.95;9.35;;;;;;;;;;6254259;22;20022;-83
2023/10/13 04:03:36;;;;;;;20.77;11.18;;;;;;;;;;6282609;22;20008;-83
2023/10/13 04:06:08;;;;;;;17.92;9.95;;;;;;;;;;6282222;22;20012;-83
2023/10/13 04:08:49;;;;;;;17.73;10.75;;;;;;;;;;6255444;22;20043;-82
2023/10/13 04:16:52;;;;;;;14.98;9.40;;;;;;;;;;6281430;22;20016;-82
2023/10/13 04:19:29;;;;;;;15.52;9.40;;;;;;;;;;6280922;22;20047;-82
2023/10/13 04:21:58;;;;;;;14.82;8.65;;;;;;;;;;6253559;22;20574;-82
2023/10/13 04:25:35;;;;;;;15.85;10.10;;;;;;;;;;6281072;22;20337;-82
2023/10/13 04:27:39;;;;;;;14.25;8.48;;;;;;;;;;6264022;22;20034;-82
2023/10/13 04:32:46;;;;;;;13.60;8.48;;;;;;;;;;6281187;22;20019;-82
2023/10/13 04:40:18;;;;;;;13.57;8.77;;;;;;;;;;6285211;22;20024;-83
2023/10/13 04:42:53;;;;;;;13.73;8.25;;;;;;;;;;6257836;22;20106;-83
2023/10/13 04:48:13;;;;;;;13.90;8.35;;;;;;;;;;6285104;22;20016;-83
2023/10/13 04:50:45;;;;;;;12.07;7.65;;;;;;;;;;6286694;22;20011;-83
2023/10/13 04:53:27;;;;;;;12.48;8.77;;;;;;;;;;6258548;22;20015;-83
2023/10/13 05:01:39;;;;;;;12.52;7.60;;;;;;;;;;6288564;22;20050;-83
2023/10/13 05:04:22;;;;;;;11.10;7.90;;;;;;;;;;6288231;22;20019;-83
2023/10/13 05:48:34;;;;;;;7.60;5.43;;;;;;;;;;6291699;22;20070;-83
2023/10/13 06:29:30;;;;;;;4.57;2.92;;;;;;;;;;6284704;22;20016;-82
2023/10/13 06:31:57;;;;;;;4.47;3.17;;;;;;;;;;6284116;22;20011;-82
2023/10/13 06:34:37;;;;;;;3.08;2.65;;;;;;;;;;6282634;22;20392;-83
2023/10/13 06:37:22;;;;;;;6.60;3.78;;;;;;;;;;6282155;22;20045;-83
2023/10/13 06:39:48;;;;;;;4.88;2.70;;;;;;;;;;6284544;22;20012;-83
2023/10/13 06:42:14;;;;;;;4.13;3.20;;;;;;;;;;6283276;22;20016;-83
2023/10/13 06:44:45;;;;;;;4.10;3.33;;;;;;;;;;6283186;22;20436;-83
2023/10/13 06:47:11;;;;;;;;;;;;;;;;;;6283073;22;20012;-83
2023/10/13 06:49:39;;;;;;;5.57;3.42;;;;;;;;;;6255702;22;20340;-83
2023/10/13 06:52:06;;;;;;;5.43;3.78;;;;;;;;;;6282631;22;20494;-83
2023/10/13 06:54:35;;;;;;;6.43;3.13;;;;;;;;;;6283315;22;20060;-82
2023/10/13 06:57:03;;;;;;;6.15;3.30;;;;;;;;;;6254793;22;20090;-82
2023/10/13 06:59:34;;;;;;;5.32;3.33;;;;;;;;;;6255127;22;20371;-82
2023/10/13 07:02:06;;;;;;;7.72;3.58;;;;;;;;;;6283356;22;20022;-83
2023/10/13 07:04:32;;;;;;;4.40;3.10;;;;;;;;;;6284691;22;20012;-83
2023/10/13 07:07:00;;;;;;;4.38;3.33;;;;;;;;;;6284033;22;20020;-83
2023/10/13 07:12:06;;;;;;;7.05;3.70;;;;;;;;;;6285526;22;20015;-82
2023/10/13 07:14:40;;;;;;;3.70;3.03;;;;;;;;;;6257446;22;20042;-83
2023/10/13 07:17:08;;;;;;;5.45;2.90;;;;;;;;;;6255982;22;20015;-83
2023/10/13 07:19:34;;;;;;;6.18;3.15;;;;;;;;;;6257029;22;20508;-83
2023/10/13 07:22:19;;;;;;;6.38;3.17;;;;;;;;;;6281318;22;20012;-82
2023/10/13 07:24:48;;;;;;;6.95;3.25;;;;;;;;;;6281415;22;20078;-83
2023/10/13 07:27:22;;;;;;;7.40;3.05;;;;;;;;;;6284289;22;20023;-83
2023/10/13 07:29:55;;;;;;;5.50;3.05;;;;;;;;;;6231020;22;20022;-83
2023/10/13 07:32:24;;;;;;;6.82;3.13;;;;;;;;;;6282912;22;20019;-83
2023/10/13 07:34:50;;;;;;;4.53;2.90;;;;;;;;;;6282483;22;20016;-83
2023/10/13 07:37:16;;;;;;;7.20;2.53;;;;;;;;;;6254939;22;20309;-83
2023/10/13 07:39:42;;;;;;;5.07;3.22;;;;;;;;;;6254893;22;20016;-83
2023/10/13 07:42:19;;;;;;;4.07;2.28;;;;;;;;;;6255290;22;20030;-83
2023/10/13 07:44:48;;;;;;;8.90;3.05;;;;;;;;;;6255348;22;20016;-82
2023/10/13 07:47:15;;;;;;;5.57;2.50;;;;;;;;;;6254673;22;20019;-82
2023/10/13 07:49:41;;;;;;;5.05;3.10;;;;;;;;;;6255643;22;20019;-83
2023/10/13 07:55:10;;;;;;;5.63;3.15;;;;;;;;;;6254175;22;20024;-82
2023/10/13 07:57:52;;;;;;;6.88;3.42;;;;;;;;;;6255625;22;20322;-83
2023/10/13 08:03:17;;;;;;;6.03;2.72;;;;;;;;;;6283724;22;20091;-83
2023/10/13 08:05:57;;;;;;;5.70;3.15;;;;;;;;;;6283144;22;20015;-83
2023/10/13 08:08:35;;;;;;;9.27;3.10;;;;;;;;;;6255809;22;20023;-83
2023/10/13 08:11:08;;;;;;;7.47;3.17;;;;;;;;;;6254708;22;20050;-83
2023/10/13 08:13:36;;;;;;;6.80;3.70;;;;;;;;;;6255473;22;20371;-83
2023/10/13 08:16:08;;;;;;;6.97;3.30;;;;;;;;;;6254965;22;20019;-82
2023/10/13 08:18:35;;;;;;;7.25;3.83;;;;;;;;;;6281736;22;20039;-82
2023/10/13 08:21:15;;;;;;;7.53;3.92;;;;;;;;;;6253893;22;20016;-83
2023/10/13 08:26:29;;;;;;;4.70;3.33;;;;;;;;;;6280642;22;20020;-82
2023/10/13 08:28:56;;;;;;;6.45;3.38;;;;;;;;;;6282555;22;20016;-83
2023/10/13 08:31:23;;;;;;;8.55;4.20;;;;;;;;;;6282641;22;20046;-82
2023/10/13 08:33:49;;;;;;;7.40;3.88;;;;;;;;;;6280706;22;20062;-82
2023/10/13 08:36:27;;;;;;;7.32;3.72;;;;;;;;;;6252564;22;20068;-82
2023/10/13 08:38:55;;;;;;;7.53;4.10;;;;;;;;;;6282639;22;20008;-82
2023/10/13 08:43:53;;;;;;;9.38;3.90;;;;;;;;;;6283268;22;20477;-82
2023/10/13 08:46:29;;;;;;;7.15;4.18;;;;;;;;;;6281652;22;20050;-82
2023/10/13 08:49:14;;;;;;;9.57;4.00;;;;;;;;;;6254879;22;20015;-81
2023/10/13 08:51:43;;;;;;;9.38;4.65;;;;;;;;;;6283621;22;20015;-81
2023/10/13 08:54:19;;;;;;;9.65;5.18;;;;;;;;;;6282845;22;20065;-81
2023/10/13 08:56:56;;;;;;;7.38;4.53;;;;;;;;;;6283771;22;20015;-81
2023/10/13 08:59:22;;;;;;;8.43;4.82;;;;;;;;;;6255207;22;20015;-81
2023/10/13 09:01:59;;;;;;;8.27;4.43;;;;;;;;;;6284301;22;20039;-81
2023/10/13 09:09:35;;;;;;;8.23;4.68;;;;;;;;;;6284808;22;20487;-81
2023/10/13 09:14:58;;;;;;;7.30;3.90;;;;;;;;;;6281903;22;20012;-81
2023/10/13 09:17:35;;;;;;;8.10;4.53;;;;;;;;;;6281642;22;20014;-81
2023/10/13 09:25:35;;;;;;;5.45;3.95;;;;;;;;;;6253909;22;20087;-80
2023/10/13 09:28:02;;;;;;;9.80;4.88;;;;;;;;;;6254405;22;20035;-80
2023/10/13 09:30:31;;;;;;;7.93;4.60;;;;;;;;;;6281439;22;20019;-80
2023/10/13 09:33:04;;;;;;;5.93;3.78;;;;;;;;;;6255395;22;20011;-80
2023/10/13 09:35:34;;;;;;;9.23;4.28;;;;;;;;;;6282621;22;20022;-80
2023/10/13 09:38:02;;;;;;;7.97;4.55;;;;;;;;;;6282353;22;20098;-80
2023/10/13 09:40:34;;;;;;;6.20;4.20;;;;;;;;;;6282955;22;20018;-82
2023/10/13 09:43:07;;;;;;;6.45;4.47;;;;;;;;;;6282770;22;20027;-80
2023/10/13 09:45:39;;;;;;;9.35;4.18;;;;;;;;;;6282647;22;20021;-80
2023/10/13 09:48:16;;;;;;;7.10;4.30;;;;;;;;;;6281376;22;20026;-81
2023/10/13 09:50:45;;;;;;;9.68;4.25;;;;;;;;;;6283060;22;20026;-81
2023/10/13 09:53:13;;;;;;;5.65;3.67;;;;;;;;;;6282166;22;20082;-81
2023/10/13 09:56:13;;;;;;;7.30;4.82;;;;;;;;;;6254252;22;20011;-80
2023/10/13 09:59:08;;;;;;;6.20;4.25;;;;;;;;;;6274027;22;20042;-80
2023/10/13 10:01:37;;;;;;;8.32;4.60;;;;;;;;;;6242630;22;20016;-80
2023/10/13 10:04:08;;;;;;;7.10;4.10;;;;;;;;;;6280100;22;20038;-79
2023/10/13 10:06:45;;;;;;;8.65;4.10;;;;;;;;;;6281404;22;20016;-80
2023/10/13 10:09:12;;;;;;;6.78;3.22;;;;;;;;;;6279277;22;20476;-80
2023/10/13 10:11:48;;;;;;;6.18;3.30;;;;;;;;;;6253112;22;20015;-79
2023/10/13 10:14:20;;;;;;;11.73;5.10;;;;;;;;;;6280726;22;20391;-80
2023/10/13 10:16:49;;;;;;;7.30;4.28;;;;;;;;;;6253042;22;20012;-80
2023/10/13 10:19:15;;;;;;;6.70;3.90;;;;;;;;;;6278517;22;20070;-80
2023/10/13 10:21:41;;;;;;;9.43;3.88;;;;;;;;;;6280270;22;20012;-80
2023/10/13 10:24:38;;;;;;;8.30;4.20;;;;;;;;;;6279965;22;20019;-79
2023/10/13 10:27:04;;;;;;;9.13;4.70;;;;;;;;;;6202085;22;20015;-80
2023/10/13 10:29:32;;;;;;;5.13;3.50;;;;;;;;;;6279399;22;20102;-80
2023/10/13 10:31:58;;;;;;;9.38;4.00;;;;;;;;;;6279928;22;20016;-80
2023/10/13 10:34:32;;;;;;;6.03;3.63;;;;;;;;;;6279090;22;20023;-79
2023/10/13 10:36:58;;;;;;;5.97;3.20;;;;;;;;;;6248775;22;20039;-79
2023/10/13 10:39:46;;;;;;;10.48;4.18;;;;;;;;;;6278582;22;20328;-79
2023/10/13 10:42:16;;;;;;;6.70;3.65;;;;;;;;;;6250190;22;20011;-80
2023/10/13 10:44:43;;;;;;;6.38;3.40;;;;;;;;;;6278236;22;20445;-80
2023/10/13 10:47:31;;;;;;;8.27;4.13;;;;;;;;;;6249748;22;20067;-79
2023/10/13 10:50:07;;;;;;;7.65;3.95;;;;;;;;;;6278124;22;20086;-80
2023/10/13 10:52:37;;;;;;;;;;;;;;;;;;6226677;22;20068;-79
2023/10/13 10:55:14;;;;;;;6.47;3.22;;;;;;;;;;6278356;22;19918;-79
2023/10/13 10:57:43;;;;;;;10.15;4.13;;;;;;;;;;6278631;22;20011;-79
2023/10/13 11:00:29;;;;;;;8.70;4.95;;;;;;;;;;6275208;22;20026;-79
2023/10/13 11:03:04;;;;;;;11.38;4.35;;;;;;;;;;6276565;22;20012;-79
2023/10/13 11:05:33;;;;;;;8.85;5.05;;;;;;;;;;6279648;22;20018;-80
2023/10/13 11:07:59;;;;;;;10.38;5.40;;;;;;;;;;6249194;22;20405;-79
2023/10/13 11:10:31;;;;;;;7.22;3.72;;;;;;;;;;6276407;22;20018;-80
2023/10/13 11:13:11;;;;;;;10.23;4.00;;;;;;;;;;6248483;22;20015;-79
2023/10/13 11:15:44;;;;;;;10.50;4.20;;;;;;;;;;6249313;22;20134;-79
2023/10/13 11:18:14;;;;;;;8.00;4.18;;;;;;;;;;6249161;22;20012;-79
2023/10/13 11:20:45;;;;;;;9.02;3.45;;;;;;;;;;6252786;22;20455;-81
2023/10/13 11:23:12;;;;;;;6.93;3.55;;;;;;;;;;6251363;22;20012;-80
2023/10/13 11:25:38;;;;;;;7.82;4.10;;;;;;;;;;6277801;22;20012;-79
2023/10/13 11:28:17;;;;;;;7.32;4.10;;;;;;;;;;6275073;22;20014;-79
2023/10/13 11:30:51;;;;;;;6.30;3.78;;;;;;;;;;6279919;22;20387;-79
2023/10/13 11:33:23;;;;;;;10.32;4.95;;;;;;;;;;6279399;22;20023;-79
2023/10/13 11:38:28;;;;;;;8.38;4.05;;;;;;;;;;6274842;22;20019;-79
2023/10/13 11:41:14;;;;;;;;;;;;;;;;;;6248929;22;20371;-79
2023/10/13 11:46:55;;;;;;;7.10;3.58;;;;;;;;;;6251096;22;20342;-79
2023/10/13 11:51:39;;;;;;;11.73;4.78;;;;;;;;;;6277085;22;20019;-79
2023/10/13 11:54:05;;;;;;;10.85;4.18;;;;;;;;;;6277042;22;20023;-79
2023/10/13 11:56:31;;;;;;;8.27;4.30;;;;;;;;;;6251189;22;20022;-80
2023/10/13 11:59:01;;;;;;;7.38;3.55;;;;;;;;;;6278881;22;20016;-80
2023/10/13 12:04:32;;;;;;;;;;;;;;;;;;6277222;22;20022;-79
2023/10/13 12:12:23;;;;;;;10.50;5.22;;;;;;;;;;6277611;22;20012;-79
2023/10/13 12:14:54;;;;;;;7.88;4.22;;;;;;;;;;6251751;22;20015;-79
2023/10/13 12:17:24;;;;;;;7.88;4.28;;;;;;;;;;6253218;22;20019;-80
2023/10/13 12:19:54;;;;;;;7.03;4.30;;;;;;;;;;6251210;22;20054;-79
2023/10/13 12:22:28;;;;;;;6.30;4.03;;;;;;;;;;6279165;22;20012;-79
2023/10/13 12:24:55;;;;;;;10.43;4.40;;;;;;;;;;6251922;22;20063;-79
2023/10/13 12:27:27;;;;;;;11.15;4.30;;;;;;;;;;6279745;22;20055;-79
2023/10/13 12:29:56;;;;;;;8.20;3.63;;;;;;;;;;6251171;22;20019;-79
2023/10/13 12:32:24;;;;;;;9.27;4.80;;;;;;;;;;6249845;22;20012;-79
2023/10/13 12:53:55;;;;;;;8.32;3.25;;;;;;;;;;6251448;22;20019;-80
2023/10/13 12:56:28;;;;;;;5.43;3.45;;;;;;;;;;6280629;22;20060;-81
2023/10/13 12:58:54;;;;;;;13.30;4.65;;;;;;;;;;6278578;22;20055;-79
2023/10/13 13:01:25;;;;;;;8.80;4.28;;;;;;;;;;6280007;22;20019;-80
2023/10/13 13:03:55;;;;;;;9.23;4.38;;;;;;;;;;6279660;22;20097;-80
2023/10/13 13:06:25;;;;;;;7.82;3.47;;;;;;;;;;6278670;22;20065;-81
2023/10/13 13:08:54;;;;;;;6.82;3.97;;;;;;;;;;6281186;22;20023;-80
2023/10/13 13:11:20;;;;;;;8.88;4.85;;;;;;;;;;6279428;22;20020;-79
2023/10/13 13:13:47;;;;;;;8.32;4.70;;;;;;;;;;6279163;22;20042;-79
2023/10/13 13:16:13;;;;;;;6.40;3.67;;;;;;;;;;6279172;22;20090;-80
2023/10/13 13:18:39;;;;;;;9.68;4.82;;;;;;;;;;6250793;22;20475;-79
2023/10/13 13:21:11;;;;;;;6.68;4.00;;;;;;;;;;6279042;22;20095;-80
2023/10/13 13:23:39;;;;;;;6.25;2.85;;;;;;;;;;6279217;22;20008;-81
2023/10/13 13:26:15;;;;;;;7.00;4.40;;;;;;;;;;6279941;22;20019;-79
2023/10/13 13:28:42;;;;;;;8.90;3.75;;;;;;;;;;6253818;22;20372;-80
2023/10/13 13:31:08;;;;;;;6.55;3.78;;;;;;;;;;6280284;22;20023;-80
2023/10/13 13:33:38;;;;;;;9.45;4.75;;;;;;;;;;6279676;22;20018;-79
2023/10/13 13:36:07;;;;;;;8.43;4.28;;;;;;;;;;6251738;22;20016;-81
2023/10/13 13:38:33;;;;;;;8.07;4.28;;;;;;;;;;6252106;22;20019;-79
2023/10/13 13:41:02;;;;;;;10.60;5.13;;;;;;;;;;6280634;22;20015;-80
2023/10/13 13:43:31;;;;;;;10.80;5.30;;;;;;;;;;6279233;22;20018;-80
2023/10/13 13:46:03;;;;;;;8.57;4.80;;;;;;;;;;6279205;22;20062;-79
2023/10/13 13:48:30;;;;;;;8.63;4.38;;;;;;;;;;6277467;22;20016;-81
2023/10/13 13:51:04;;;;;;;8.88;5.32;;;;;;;;;;6250111;22;20076;-79
2023/10/13 13:53:34;;;;;;;11.30;4.47;;;;;;;;;;6250377;22;20015;-79
2023/10/13 13:56:00;;;;;;;;;;;;;;;;;;6277364;22;20065;-79
2023/10/13 13:58:26;;;;;;;9.15;4.50;;;;;;;;;;6276654;22;19915;-79
2023/10/13 14:00:57;;;;;;;11.30;4.97;;;;;;;;;;6277576;22;20453;-79
2023/10/13 14:03:32;;;;;;;12.07;5.40;;;;;;;;;;6276717;22;20040;-79
2023/10/13 14:06:03;;;;;;;9.88;4.25;;;;;;;;;;6277090;22;20008;-80
2023/10/13 14:08:29;;;;;;;7.20;4.75;;;;;;;;;;6276988;22;20022;-79
2023/10/13 14:11:21;;;;;;;12.63;4.55;;;;;;;;;;6277412;22;20014;-79
2023/10/13 14:13:48;;;;;;;11.05;4.75;;;;;;;;;;6249231;22;20016;-79
2023/10/13 14:16:17;;;;;;;8.77;5.10;;;;;;;;;;6275656;22;20353;-79
2023/10/13 14:18:45;;;;;;;8.75;4.93;;;;;;;;;;6248691;22;20475;-79
2023/10/13 14:21:16;;;;;;;12.18;4.93;;;;;;;;;;6275057;22;20199;-79
2023/10/13 14:23:42;;;;;;;10.05;5.50;;;;;;;;;;6275298;22;20459;-79
2023/10/13 14:26:09;;;;;;;10.32;4.90;;;;;;;;;;6274571;22;20019;-79
2023/10/13 14:28:35;;;;;;;10.55;4.57;;;;;;;;;;6248600;22;20020;-79
2023/10/13 14:31:12;;;;;;;8.38;4.82;;;;;;;;;;6275307;22;20011;-79
2023/10/13 14:33:39;;;;;;;10.38;5.38;;;;;;;;;;6249994;22;20062;-79
2023/10/13 14:36:05;;;;;;;9.38;4.93;;;;;;;;;;6275566;22;20439;-79
2023/10/13 14:38:31;;;;;;;8.13;5.10;;;;;;;;;;6277584;22;20023;-79
2023/10/13 14:40:58;;;;;;;14.68;4.70;;;;;;;;;;6275251;22;20015;-79
2023/10/13 14:43:27;;;;;;;8.52;4.85;;;;;;;;;;6276815;22;20012;-79
2023/10/13 14:45:53;;;;;;;9.05;4.55;;;;;;;;;;6277017;22;20011;-78
2023/10/13 14:48:20;;;;;;;10.77;4.78;;;;;;;;;;6275620;22;20068;-79
2023/10/13 14:50:46;;;;;;;7.53;5.00;;;;;;;;;;6277065;22;20016;-79
2023/10/13 14:53:12;;;;;;;9.77;5.03;;;;;;;;;;6276278;22;20012;-79
2023/10/13 14:55:38;;;;;;;10.40;4.97;;;;;;;;;;6278013;22;20127;-79
2023/10/13 14:58:04;;;;;;;9.20;4.53;;;;;;;;;;6225140;22;20016;-79
2023/10/13 15:00:31;;;;;;;7.43;3.95;;;;;;;;;;6277971;22;20035;-80
2023/10/13 15:03:01;;;;;;;12.05;5.03;;;;;;;;;;6278384;22;20026;-80
2023/10/13 15:05:29;;;;;;;11.43;4.88;;;;;;;;;;6277285;22;20039;-79
2023/10/13 15:07:55;;;;;;;11.13;5.70;;;;;;;;;;6277056;22;20016;-79
2023/10/13 15:10:24;;;;;;;8.13;4.90;;;;;;;;;;6277916;22;20015;-79
2023/10/13 15:12:50;;;;;;;9.70;5.10;;;;;;;;;;6251286;22;20012;-80
2023/10/13 15:15:16;;;;;;;8.05;5.10;;;;;;;;;;6252489;22;20068;-80
2023/10/13 15:17:43;;;;;;;8.32;5.10;;;;;;;;;;6280415;22;20054;-80
2023/10/13 15:20:10;;;;;;;11.50;5.25;;;;;;;;;;6279656;22;20178;-80
2023/10/13 15:22:37;;;;;;;9.85;4.78;;;;;;;;;;6252105;22;20018;-80
2023/10/13 15:25:20;;;;;;;11.30;5.53;;;;;;;;;;6252254;22;20023;-79
2023/10/13 15:27:55;;;;;;;10.18;4.88;;;;;;;;;;6279906;22;20016;-80
2023/10/13 15:30:23;;;;;;;12.50;5.10;;;;;;;;;;6279469;22;20060;-80
2023/10/13 15:32:50;;;;;;;10.73;5.65;;;;;;;;;;6281424;22;20012;-81
2023/10/13 15:35:16;;;;;;;9.52;5.57;;;;;;;;;;6253426;22;20022;-80
2023/10/13 15:37:47;;;;;;;10.45;5.57;;;;;;;;;;6281020;22;20008;-80
2023/10/13 15:40:15;;;;;;;;;;;;;;;;;;6281208;22;20381;-80
2023/10/13 15:42:41;;;;;;;;;;;;;;;;;;6282104;22;19911;-80
2023/10/13 15:45:16;;;;;;;8.40;5.47;;;;;;;;;;6282023;22;20328;-80
2023/10/13 15:47:45;;;;;;;8.20;5.05;;;;;;;;;;6281687;22;20007;-80
2023/10/13 15:50:15;;;;;;;10.88;6.68;;;;;;;;;;6280078;22;20016;-80
2023/10/13 15:52:45;;;;;;;9.55;5.72;;;;;;;;;;6280646;22;20034;-80
2023/10/13 15:55:17;;;;;;;10.85;5.72;;;;;;;;;;6252164;22;20016;-80
2023/10/13 15:57:43;;;;;;;11.77;5.75;;;;;;;;;;6280378;22;20317;-80
2023/10/13 16:00:31;;;;;;;12.02;5.05;;;;;;;;;;6253005;22;20020;-80
2023/10/13 16:02:57;;;;;;;9.40;4.00;;;;;;;;;;6279758;22;20039;-80
2023/10/13 16:05:24;;;;;;;8.07;5.05;;;;;;;;;;6253097;22;20063;-80
2023/10/13 16:07:51;;;;;;;10.60;4.68;;;;;;;;;;6280147;22;20392;-81
2023/10/13 16:10:17;;;;;;;10.40;4.50;;;;;;;;;;6279974;22;20015;-80
2023/10/13 16:12:46;;;;;;;8.25;4.63;;;;;;;;;;6253878;22;20485;-80
2023/10/13 16:15:15;;;;;;;7.88;3.88;;;;;;;;;;6252750;22;20015;-80
2023/10/13 16:17:41;;;;;;;5.32;3.60;;;;;;;;;;6280319;22;20384;-80
2023/10/13 16:20:15;;;;;;;8.45;3.22;;;;;;;;;;6252757;22;20015;-80
2023/10/13 16:22:43;;;;;;;5.78;3.40;;;;;;;;;;6280153;22;20012;-80
2023/10/13 16:25:11;;;;;;;10.30;4.15;;;;;;;;;;6278680;22;20392;-80
2023/10/13 16:27:39;;;;;;;6.50;3.22;;;;;;;;;;6251777;22;20015;-80
2023/10/13 16:30:09;;;;;;;5.55;2.88;;;;;;;;;;6277531;22;20057;-80
2023/10/13 16:32:35;;;;;;;4.65;2.85;;;;;;;;;;6278994;22;20449;-80
2023/10/13 16:35:02;;;;;;;4.55;2.67;;;;;;;;;;6250147;22;20016;-80
2023/10/13 16:37:30;;;;;;;6.60;3.47;;;;;;;;;;6277792;22;20012;-80
2023/10/13 16:40:04;;;;;;;6.78;4.05;;;;;;;;;;6277548;22;20433;-79
2023/10/13 16:42:33;;;;;;;10.27;4.50;;;;;;;;;;6249297;22;20015;-79
2023/10/13 16:45:14;;;;;;;8.35;4.45;;;;;;;;;;6276860;22;20257;-79
2023/10/13 16:47:42;;;;;;;9.95;6.35;;;;;;;;;;6224086;22;20047;-79
2023/10/13 16:50:08;;;;;;;8.60;4.53;;;;;;;;;;6249364;22;20357;-80
2023/10/13 16:52:34;;;;;;;11.82;4.90;;;;;;;;;;6276610;22;20016;-79
2023/10/13 16:55:00;;;;;;;9.18;4.65;;;;;;;;;;6249288;22;20019;-80
2023/10/13 16:57:26;;;;;;;9.68;5.38;;;;;;;;;;6278669;22;20016;-80
2023/10/13 16:59:52;;;;;;;10.70;5.72;;;;;;;;;;6249762;22;20022;-79
2023/10/13 17:02:19;;;;;;;11.00;5.57;;;;;;;;;;6250748;22;20084;-79
2023/10/13 17:04:45;;;;;;;12.57;4.90;;;;;;;;;;6251403;22;20065;-80
2023/10/13 17:07:13;;;;;;;9.25;5.15;;;;;;;;;;6278737;22;20011;-80
2023/10/13 17:09:40;;;;;;;11.50;5.78;;;;;;;;;;6279023;22;20034;-79
2023/10/13 17:12:06;;;;;;;7.68;5.15;;;;;;;;;;6251519;22;20015;-80
2023/10/13 17:14:32;;;;;;;9.52;4.15;;;;;;;;;;6251849;22;20015;-79
2023/10/13 17:16:58;;;;;;;8.40;4.38;;;;;;;;;;6276375;22;20093;-79
2023/10/13 17:19:24;;;;;;;10.40;4.70;;;;;;;;;;6278882;22;20061;-79
2023/10/13 17:21:50;;;;;;;5.78;4.03;;;;;;;;;;6250080;22;20019;-79
2023/10/13 17:24:19;;;;;;;7.15;3.83;;;;;;;;;;6249989;22;20019;-79
2023/10/13 17:26:49;;;;;;;8.88;4.07;;;;;;;;;;6249879;22;20068;-79
2023/10/13 17:29:15;;;;;;;7.72;3.90;;;;;;;;;;6249922;22;20038;-79
2023/10/13 17:31:41;;;;;;;7.75;3.88;;;;;;;;;;6277323;22;20020;-79
2023/10/13 17:34:07;;;;;;;9.48;4.35;;;;;;;;;;6276590;22;20007;-79
2023/10/13 17:36:33;;;;;;;6.40;4.35;;;;;;;;;;6276822;22;20452;-79
2023/10/13 17:39:00;;;;;;;10.82;4.38;;;;;;;;;;6276812;22;20333;-79
2023/10/13 17:41:30;;;;;;;8.77;4.10;;;;;;;;;;6248355;22;20019;-79
2023/10/13 17:43:57;;;;;;;7.53;4.32;;;;;;;;;;6275294;22;20471;-79
2023/10/13 17:46:24;;;;;;;7.95;3.65;;;;;;;;;;6275948;22;20031;-79
2023/10/13 17:48:54;;;;;;;7.22;3.90;;;;;;;;;;6275105;22;20019;-79